createdAt,value
2019-03-18T00:00:53.589Z,1006.17
2019-03-18T00:01:53.600Z,1006.19
2019-03-18T00:02:54.220Z,1006.30
2019-03-18T00:03:53.547Z,1006.16
2019-03-18T00:04:53.541Z,1006.23
2019-03-18T00:05:54.222Z,1006.33
2019-03-18T00:06:53.534Z,1006.24
2019-03-18T00:07:54.218Z,1006.25
2019-03-18T00:08:53.501Z,1006.28
2019-03-18T00:09:53.487Z,1006.25
2019-03-18T00:10:53.477Z,1006.15
2019-03-18T00:11:53.494Z,1006.24
2019-03-18T00:12:54.227Z,1006.26
2019-03-18T00:13:53.442Z,1006.30
2019-03-18T00:15:01.226Z,1006.27
2019-03-18T00:15:53.420Z,1006.20
2019-03-18T00:16:53.425Z,1006.33
2019-03-18T00:17:53.395Z,1006.23
2019-03-18T00:18:53.383Z,1006.24
2019-03-18T00:19:54.242Z,1006.30
2019-03-18T00:20:53.363Z,1006.35
2019-03-18T00:21:53.365Z,1006.39
2019-03-18T00:22:53.343Z,1006.38
2019-03-18T00:23:53.343Z,1006.37
2019-03-18T00:24:53.340Z,1006.45
2019-03-18T00:25:53.392Z,1006.45
2019-03-18T00:26:53.762Z,1006.44
2019-03-18T00:27:53.289Z,1006.52
2019-03-18T00:28:54.224Z,1006.41
2019-03-18T00:29:53.269Z,1006.45
2019-03-18T00:30:53.255Z,1006.38
2019-03-18T00:31:53.266Z,1006.48
2019-03-18T00:32:54.222Z,1006.45
2019-03-18T00:33:53.723Z,1006.42
2019-03-18T00:34:53.211Z,1006.44
2019-03-18T00:35:53.200Z,1006.47
2019-03-18T00:36:53.319Z,1006.48
2019-03-18T00:37:53.179Z,1006.46
2019-03-18T00:38:53.168Z,1006.50
2019-03-18T00:39:53.157Z,1006.56
2019-03-18T00:40:53.149Z,1006.56
2019-03-18T00:41:53.241Z,1006.53
2019-03-18T00:42:53.147Z,1006.50
2019-03-18T00:43:53.735Z,1006.55
2019-03-18T00:44:53.726Z,1006.57
2019-03-18T00:45:53.091Z,1006.55
2019-03-18T00:46:53.076Z,1006.63
2019-03-18T00:47:53.084Z,1006.63
2019-03-18T00:48:53.725Z,1006.60
2019-03-18T00:49:53.043Z,1006.60
2019-03-18T00:50:53.032Z,1006.53
2019-03-18T00:51:53.021Z,1006.55
2019-03-18T00:52:53.239Z,1006.56
2019-03-18T00:53:53.727Z,1006.57
2019-03-18T00:54:52.988Z,1006.53
2019-03-18T00:55:53.731Z,1006.58
2019-03-18T00:56:52.970Z,1006.59
2019-03-18T00:57:53.249Z,1006.56
2019-03-18T00:58:52.957Z,1006.56
2019-03-18T00:59:52.938Z,1006.54
2019-03-18T01:00:53.729Z,1006.57
2019-03-18T01:01:52.916Z,1006.52
2019-03-18T01:02:53.242Z,1006.45
2019-03-18T01:03:52.890Z,1006.61
2019-03-18T01:04:52.875Z,1006.56
2019-03-18T01:05:52.868Z,1006.60
2019-03-18T01:06:53.735Z,1006.63
2019-03-18T01:07:52.862Z,1006.53
2019-03-18T01:08:52.832Z,1006.59
2019-03-18T01:09:52.826Z,1006.61
2019-03-18T01:10:52.822Z,1006.64
2019-03-18T01:11:52.803Z,1006.61
2019-03-18T01:12:52.806Z,1006.62
2019-03-18T01:13:52.781Z,1006.56
2019-03-18T01:14:52.771Z,1006.59
2019-03-18T01:15:53.724Z,1006.59
2019-03-18T01:16:52.748Z,1006.64
2019-03-18T01:17:53.248Z,1006.65
2019-03-18T01:18:52.721Z,1006.64
2019-03-18T01:19:52.716Z,1006.67
2019-03-18T01:20:53.225Z,1006.64
2019-03-18T01:21:52.689Z,1006.67
2019-03-18T01:22:52.754Z,1006.65
2019-03-18T01:23:52.673Z,1006.66
2019-03-18T01:24:53.242Z,1006.62
2019-03-18T01:25:52.649Z,1006.65
2019-03-18T01:26:52.636Z,1006.64
2019-03-18T01:27:52.800Z,1006.58
2019-03-18T01:28:53.229Z,1006.55
2019-03-18T01:29:52.604Z,1006.63
2019-03-18T01:30:53.308Z,1006.69
2019-03-18T01:31:52.582Z,1006.69
2019-03-18T01:32:52.572Z,1006.70
2019-03-18T01:33:52.738Z,1006.73
2019-03-18T01:34:52.546Z,1006.77
2019-03-18T01:35:52.557Z,1006.72
2019-03-18T01:36:52.529Z,1006.67
2019-03-18T01:37:52.521Z,1006.69
2019-03-18T01:38:52.738Z,1006.69
2019-03-18T01:39:52.495Z,1006.69
2019-03-18T01:40:52.495Z,1006.63
2019-03-18T01:41:52.470Z,1006.72
2019-03-18T01:42:52.465Z,1006.69
2019-03-18T01:43:52.464Z,1006.72
2019-03-18T01:44:52.437Z,1006.70
2019-03-18T01:45:53.241Z,1006.73
2019-03-18T01:46:53.226Z,1006.70
2019-03-18T01:47:52.406Z,1006.67
2019-03-18T01:48:52.410Z,1006.66
2019-03-18T01:49:52.386Z,1006.70
2019-03-18T01:50:53.244Z,1006.73
2019-03-18T01:51:53.228Z,1006.71
2019-03-18T01:52:53.233Z,1006.68
2019-03-18T01:53:52.353Z,1006.65
2019-03-18T01:54:53.229Z,1006.66
2019-03-18T01:55:52.338Z,1006.69
2019-03-18T01:56:52.311Z,1006.77
2019-03-18T01:57:52.301Z,1006.70
2019-03-18T01:58:52.295Z,1006.70
2019-03-18T01:59:52.272Z,1006.69
2019-03-18T02:00:52.281Z,1006.68
2019-03-18T02:01:52.251Z,1006.61
2019-03-18T02:02:52.245Z,1006.62
2019-03-18T02:03:52.245Z,1006.62
2019-03-18T02:04:52.218Z,1006.68
2019-03-18T02:05:52.224Z,1006.63
2019-03-18T02:06:52.197Z,1006.68
2019-03-18T02:07:52.208Z,1006.54
2019-03-18T02:08:52.178Z,1006.62
2019-03-18T02:09:52.172Z,1006.67
2019-03-18T02:10:52.165Z,1006.64
2019-03-18T02:11:52.738Z,1006.66
2019-03-18T02:12:52.138Z,1006.62
2019-03-18T02:13:52.119Z,1006.63
2019-03-18T02:14:52.114Z,1006.61
2019-03-18T02:15:53.539Z,1006.59
2019-03-18T02:16:52.087Z,1006.60
2019-03-18T02:17:52.726Z,1006.58
2019-03-18T02:18:52.066Z,1006.59
2019-03-18T02:19:52.085Z,1006.67
2019-03-18T02:20:52.057Z,1006.68
2019-03-18T02:21:52.033Z,1006.72
2019-03-18T02:22:52.061Z,1006.82
2019-03-18T02:23:52.013Z,1006.73
2019-03-18T02:24:52.018Z,1006.76
2019-03-18T02:25:52.001Z,1006.73
2019-03-18T02:26:52.747Z,1006.78
2019-03-18T02:27:51.969Z,1006.83
2019-03-18T02:28:51.954Z,1006.76
2019-03-18T02:29:52.252Z,1006.83
2019-03-18T02:30:51.952Z,1006.89
2019-03-18T02:31:52.729Z,1006.85
2019-03-18T02:32:51.911Z,1006.88
2019-03-18T02:33:51.918Z,1006.87
2019-03-18T02:34:51.915Z,1006.88
2019-03-18T02:35:51.903Z,1006.84
2019-03-18T02:36:52.731Z,1006.87
2019-03-18T02:37:51.859Z,1006.90
2019-03-18T02:38:51.846Z,1006.89
2019-03-18T02:39:52.247Z,1006.87
2019-03-18T02:40:51.840Z,1006.89
2019-03-18T02:41:51.822Z,1006.90
2019-03-18T02:42:51.802Z,1006.90
2019-03-18T02:43:52.732Z,1006.96
2019-03-18T02:44:51.789Z,1007.12
2019-03-18T02:45:51.783Z,1007.17
2019-03-18T02:46:52.735Z,1007.24
2019-03-18T02:47:52.733Z,1007.23
2019-03-18T02:48:51.737Z,1007.32
2019-03-18T02:49:51.749Z,1007.35
2019-03-18T02:50:51.735Z,1007.36
2019-03-18T02:51:53.210Z,1007.39
2019-03-18T02:52:52.234Z,1007.45
2019-03-18T02:53:51.682Z,1007.47
2019-03-18T02:54:51.756Z,1007.51
2019-03-18T02:55:51.673Z,1007.45
2019-03-18T02:56:52.255Z,1007.50
2019-03-18T02:57:51.644Z,1007.48
2019-03-18T02:58:51.627Z,1007.51
2019-03-18T02:59:51.617Z,1007.41
2019-03-18T03:00:51.618Z,1007.47
2019-03-18T03:01:51.594Z,1007.41
2019-03-18T03:02:52.230Z,1007.41
2019-03-18T03:03:52.251Z,1007.44
2019-03-18T03:04:51.565Z,1007.34
2019-03-18T03:05:51.557Z,1007.47
2019-03-18T03:06:52.237Z,1007.41
2019-03-18T03:07:51.533Z,1007.37
2019-03-18T03:08:51.514Z,1007.39
2019-03-18T03:09:52.235Z,1007.30
2019-03-18T03:10:51.507Z,1007.39
2019-03-18T03:11:51.487Z,1007.41
2019-03-18T03:12:51.473Z,1007.34
2019-03-18T03:13:51.468Z,1007.44
2019-03-18T03:14:51.458Z,1007.42
2019-03-18T03:15:51.784Z,1007.48
2019-03-18T03:16:51.436Z,1007.46
2019-03-18T03:17:51.420Z,1007.43
2019-03-18T03:18:51.412Z,1007.49
2019-03-18T03:19:52.235Z,1007.48
2019-03-18T03:20:51.395Z,1007.49
2019-03-18T03:21:51.379Z,1007.47
2019-03-18T03:22:51.364Z,1007.43
2019-03-18T03:23:51.353Z,1007.39
2019-03-18T03:24:52.234Z,1007.48
2019-03-18T03:25:51.753Z,1007.45
2019-03-18T03:26:51.318Z,1007.49
2019-03-18T03:27:51.311Z,1007.41
2019-03-18T03:28:51.297Z,1007.49
2019-03-18T03:29:51.287Z,1007.53
2019-03-18T03:30:51.334Z,1007.45
2019-03-18T03:31:51.267Z,1007.52
2019-03-18T03:32:51.468Z,1007.52
2019-03-18T03:33:51.243Z,1007.50
2019-03-18T03:34:51.762Z,1007.46
2019-03-18T03:35:51.757Z,1007.49
2019-03-18T03:36:51.261Z,1007.48
2019-03-18T03:37:51.733Z,1007.51
2019-03-18T03:38:51.225Z,1007.54
2019-03-18T03:39:51.187Z,1007.52
2019-03-18T03:40:51.211Z,1007.48
2019-03-18T03:41:51.189Z,1007.48
2019-03-18T03:42:51.149Z,1007.50
2019-03-18T03:43:51.143Z,1007.51
2019-03-18T03:44:51.740Z,1007.55
2019-03-18T03:45:51.117Z,1007.45
2019-03-18T03:46:51.257Z,1007.57
2019-03-18T03:47:51.093Z,1007.56
2019-03-18T03:48:51.083Z,1007.61
2019-03-18T03:49:51.071Z,1007.54
2019-03-18T03:50:51.062Z,1007.60
2019-03-18T03:51:51.264Z,1007.64
2019-03-18T03:52:51.739Z,1007.56
2019-03-18T03:53:51.034Z,1007.62
2019-03-18T03:54:51.021Z,1007.67
2019-03-18T03:55:51.735Z,1007.65
2019-03-18T03:56:51.043Z,1007.71
2019-03-18T03:57:51.771Z,1007.69
2019-03-18T03:58:50.984Z,1007.76
2019-03-18T03:59:50.960Z,1007.74
2019-03-18T04:00:50.949Z,1007.79
2019-03-18T04:01:50.996Z,1007.74
2019-03-18T04:02:51.738Z,1007.84
2019-03-18T04:03:50.923Z,1007.78
2019-03-18T04:04:50.934Z,1007.78
2019-03-18T04:05:50.896Z,1007.79
2019-03-18T04:06:50.914Z,1007.89
2019-03-18T04:07:50.878Z,1007.85
2019-03-18T04:08:50.864Z,1007.93
2019-03-18T04:09:51.739Z,1007.98
2019-03-18T04:10:50.854Z,1007.98
2019-03-18T04:11:51.265Z,1008.03
2019-03-18T04:12:50.817Z,1008.02
2019-03-18T04:13:51.738Z,1008.01
2019-03-18T04:14:50.796Z,1007.97
2019-03-18T04:15:50.822Z,1007.96
2019-03-18T04:17:01.727Z,1007.93
2019-03-18T04:17:50.767Z,1007.89
2019-03-18T04:18:50.752Z,1007.92
2019-03-18T04:19:50.753Z,1008.02
2019-03-18T04:20:51.257Z,1008.02
2019-03-18T04:21:51.137Z,1008.00
2019-03-18T04:22:50.735Z,1008.01
2019-03-18T04:23:50.699Z,1008.06
2019-03-18T04:24:50.693Z,1008.02
2019-03-18T04:25:51.245Z,1008.11
2019-03-18T04:26:51.272Z,1007.99
2019-03-18T04:27:50.744Z,1008.01
2019-03-18T04:28:50.638Z,1008.00
2019-03-18T04:29:50.629Z,1007.99
2019-03-18T04:30:50.617Z,1008.05
2019-03-18T04:31:50.630Z,1008.01
2019-03-18T04:32:50.751Z,1008.11
2019-03-18T04:33:50.588Z,1008.04
2019-03-18T04:34:50.573Z,1008.05
2019-03-18T04:35:50.563Z,1008.05
2019-03-18T04:36:50.566Z,1008.07
2019-03-18T04:37:50.555Z,1008.05
2019-03-18T04:38:50.531Z,1008.11
2019-03-18T04:39:50.521Z,1008.07
2019-03-18T04:40:50.516Z,1008.15
2019-03-18T04:41:50.497Z,1008.12
2019-03-18T04:42:50.772Z,1008.18
2019-03-18T04:43:50.474Z,1008.26
2019-03-18T04:44:51.245Z,1008.26
2019-03-18T04:45:50.469Z,1008.24
2019-03-18T04:46:50.451Z,1008.23
2019-03-18T04:47:50.430Z,1008.24
2019-03-18T04:48:50.429Z,1008.16
2019-03-18T04:49:51.240Z,1008.22
2019-03-18T04:50:50.394Z,1008.26
2019-03-18T04:51:50.401Z,1008.28
2019-03-18T04:52:50.421Z,1008.24
2019-03-18T04:53:50.383Z,1008.31
2019-03-18T04:54:51.243Z,1008.24
2019-03-18T04:55:50.342Z,1008.35
2019-03-18T04:56:50.352Z,1008.34
2019-03-18T04:57:51.244Z,1008.36
2019-03-18T04:58:50.322Z,1008.37
2019-03-18T04:59:51.239Z,1008.37
2019-03-18T05:00:51.241Z,1008.43
2019-03-18T05:01:51.291Z,1008.42
2019-03-18T05:02:50.272Z,1008.46
2019-03-18T05:03:50.784Z,1008.47
2019-03-18T05:04:50.244Z,1008.38
2019-03-18T05:05:50.741Z,1008.41
2019-03-18T05:06:50.752Z,1008.45
2019-03-18T05:07:50.256Z,1008.51
2019-03-18T05:08:50.260Z,1008.44
2019-03-18T05:09:50.206Z,1008.52
2019-03-18T05:10:50.178Z,1008.53
2019-03-18T05:11:50.180Z,1008.49
2019-03-18T05:12:50.750Z,1008.57
2019-03-18T05:13:50.192Z,1008.61
2019-03-18T05:14:50.136Z,1008.60
2019-03-18T05:15:50.150Z,1008.61
2019-03-18T05:16:50.129Z,1008.74
2019-03-18T05:17:50.743Z,1008.76
2019-03-18T05:18:50.273Z,1008.72
2019-03-18T05:19:50.109Z,1008.79
2019-03-18T05:20:50.743Z,1008.83
2019-03-18T05:21:50.107Z,1008.90
2019-03-18T05:22:50.050Z,1008.91
2019-03-18T05:23:50.058Z,1008.95
2019-03-18T05:24:50.026Z,1008.91
2019-03-18T05:25:50.745Z,1008.88
2019-03-18T05:26:50.037Z,1008.89
2019-03-18T05:27:49.993Z,1008.88
2019-03-18T05:28:49.980Z,1008.86
2019-03-18T05:29:49.978Z,1008.85
2019-03-18T05:30:49.964Z,1008.84
2019-03-18T05:31:50.757Z,1008.83
2019-03-18T05:32:49.950Z,1008.99
2019-03-18T05:33:49.927Z,1008.96
2019-03-18T05:34:49.946Z,1009.03
2019-03-18T05:35:49.914Z,1009.02
2019-03-18T05:36:49.934Z,1009.08
2019-03-18T05:37:49.886Z,1009.03
2019-03-18T05:38:49.882Z,1009.02
2019-03-18T05:39:49.883Z,1009.11
2019-03-18T05:40:49.853Z,1009.06
2019-03-18T05:41:49.906Z,1009.20
2019-03-18T05:42:49.843Z,1009.23
2019-03-18T05:43:49.828Z,1009.24
2019-03-18T05:44:49.815Z,1009.21
2019-03-18T05:45:49.797Z,1009.24
2019-03-18T05:46:49.788Z,1009.26
2019-03-18T05:47:49.792Z,1009.23
2019-03-18T05:48:50.743Z,1009.32
2019-03-18T05:49:49.761Z,1009.30
2019-03-18T05:50:49.742Z,1009.35
2019-03-18T05:51:49.736Z,1009.31
2019-03-18T05:52:50.291Z,1009.26
2019-03-18T05:53:50.275Z,1009.31
2019-03-18T05:54:49.709Z,1009.40
2019-03-18T05:55:49.699Z,1009.36
2019-03-18T05:56:49.677Z,1009.30
2019-03-18T05:57:50.255Z,1009.38
2019-03-18T05:58:50.255Z,1009.35
2019-03-18T05:59:49.760Z,1009.41
2019-03-18T06:00:49.633Z,1009.36
2019-03-18T06:01:49.636Z,1009.40
2019-03-18T06:02:49.624Z,1009.35
2019-03-18T06:03:49.601Z,1009.38
2019-03-18T06:04:49.602Z,1009.40
2019-03-18T06:05:49.761Z,1009.43
2019-03-18T06:06:49.568Z,1009.48
2019-03-18T06:07:49.559Z,1009.45
2019-03-18T06:08:49.548Z,1009.46
2019-03-18T06:09:49.537Z,1009.50
2019-03-18T06:10:49.760Z,1009.56
2019-03-18T06:11:49.514Z,1009.55
2019-03-18T06:12:50.247Z,1009.53
2019-03-18T06:13:49.491Z,1009.58
2019-03-18T06:14:49.484Z,1009.63
2019-03-18T06:15:49.481Z,1009.61
2019-03-18T06:16:49.458Z,1009.65
2019-03-18T06:17:52.735Z,1009.61
2019-03-18T06:18:50.246Z,1009.61
2019-03-18T06:19:49.437Z,1009.67
2019-03-18T06:20:49.773Z,1009.70
2019-03-18T06:21:49.409Z,1009.71
2019-03-18T06:22:50.261Z,1009.74
2019-03-18T06:23:50.250Z,1009.83
2019-03-18T06:24:49.376Z,1009.84
2019-03-18T06:25:49.766Z,1009.76
2019-03-18T06:26:50.261Z,1009.83
2019-03-18T06:27:50.291Z,1009.84
2019-03-18T06:28:50.249Z,1009.90
2019-03-18T06:29:49.341Z,1009.90
2019-03-18T06:30:49.313Z,1009.95
2019-03-18T06:31:49.308Z,1009.94
2019-03-18T06:32:50.254Z,1009.93
2019-03-18T06:33:49.287Z,1009.85
2019-03-18T06:34:49.271Z,1009.92
2019-03-18T06:35:49.275Z,1009.93
2019-03-18T06:36:49.239Z,1009.94
2019-03-18T06:37:49.763Z,1009.96
2019-03-18T06:38:49.221Z,1009.99
2019-03-18T06:39:49.225Z,1010.07
2019-03-18T06:40:49.198Z,1010.04
2019-03-18T06:41:49.191Z,1010.00
2019-03-18T06:42:49.792Z,1010.01
2019-03-18T06:43:49.169Z,1010.03
2019-03-18T06:44:49.164Z,1010.00
2019-03-18T06:45:49.144Z,1009.95
2019-03-18T06:46:49.141Z,1010.01
2019-03-18T06:47:49.132Z,1010.02
2019-03-18T06:48:49.111Z,1010.06
2019-03-18T06:49:49.748Z,1010.06
2019-03-18T06:50:49.092Z,1010.10
2019-03-18T06:51:49.082Z,1010.16
2019-03-18T06:52:49.079Z,1010.18
2019-03-18T06:53:49.054Z,1010.16
2019-03-18T06:54:49.047Z,1010.19
2019-03-18T06:55:49.758Z,1010.16
2019-03-18T06:56:49.053Z,1010.23
2019-03-18T06:57:49.029Z,1010.21
2019-03-18T06:58:49.000Z,1010.15
2019-03-18T06:59:48.992Z,1010.20
2019-03-18T07:00:48.995Z,1010.20
2019-03-18T07:01:49.260Z,1010.25
2019-03-18T07:02:49.757Z,1010.26
2019-03-18T07:03:48.951Z,1010.26
2019-03-18T07:04:49.749Z,1010.28
2019-03-18T07:05:49.750Z,1010.34
2019-03-18T07:06:49.265Z,1010.39
2019-03-18T07:07:49.755Z,1010.37
2019-03-18T07:08:48.896Z,1010.34
2019-03-18T07:09:48.899Z,1010.34
2019-03-18T07:10:48.873Z,1010.38
2019-03-18T07:11:48.939Z,1010.43
2019-03-18T07:12:49.754Z,1010.38
2019-03-18T07:13:48.850Z,1010.36
2019-03-18T07:14:48.825Z,1010.39
2019-03-18T07:15:48.822Z,1010.43
2019-03-18T07:16:48.821Z,1010.37
2019-03-18T07:17:48.796Z,1010.36
2019-03-18T07:18:48.785Z,1010.42
2019-03-18T07:19:48.790Z,1010.39
2019-03-18T07:20:48.773Z,1010.39
2019-03-18T07:21:48.769Z,1010.49
2019-03-18T07:22:48.753Z,1010.47
2019-03-18T07:23:48.729Z,1010.45
2019-03-18T07:24:48.722Z,1010.43
2019-03-18T07:25:49.270Z,1010.45
2019-03-18T07:26:48.736Z,1010.46
2019-03-18T07:27:49.265Z,1010.46
2019-03-18T07:28:48.676Z,1010.46
2019-03-18T07:29:49.252Z,1010.43
2019-03-18T07:30:49.253Z,1010.48
2019-03-18T07:31:48.659Z,1010.52
2019-03-18T07:32:48.765Z,1010.52
2019-03-18T07:33:48.622Z,1010.49
2019-03-18T07:34:48.616Z,1010.50
2019-03-18T07:35:49.263Z,1010.45
2019-03-18T07:36:48.591Z,1010.51
2019-03-18T07:37:48.596Z,1010.61
2019-03-18T07:38:49.251Z,1010.61
2019-03-18T07:39:48.562Z,1010.61
2019-03-18T07:40:48.547Z,1010.70
2019-03-18T07:41:48.540Z,1010.73
2019-03-18T07:42:48.782Z,1010.80
2019-03-18T07:43:49.253Z,1010.84
2019-03-18T07:44:48.507Z,1010.87
2019-03-18T07:45:49.250Z,1010.87
2019-03-18T07:46:48.573Z,1010.89
2019-03-18T07:47:48.772Z,1010.92
2019-03-18T07:48:49.265Z,1010.84
2019-03-18T07:49:48.459Z,1010.94
2019-03-18T07:50:48.440Z,1010.92
2019-03-18T07:51:49.259Z,1010.98
2019-03-18T07:52:48.436Z,1010.97
2019-03-18T07:53:49.253Z,1011.02
2019-03-18T07:54:48.406Z,1011.07
2019-03-18T07:55:48.387Z,1011.10
2019-03-18T07:56:48.376Z,1011.02
2019-03-18T07:57:48.374Z,1011.00
2019-03-18T07:58:49.260Z,1011.09
2019-03-18T07:59:48.347Z,1011.05
2019-03-18T08:00:48.376Z,1011.12
2019-03-18T08:01:49.253Z,1011.07
2019-03-18T08:02:48.785Z,1011.18
2019-03-18T08:03:48.314Z,1011.22
2019-03-18T08:04:48.306Z,1011.23
2019-03-18T08:05:48.349Z,1011.21
2019-03-18T08:06:48.268Z,1011.28
2019-03-18T08:07:48.770Z,1011.22
2019-03-18T08:08:48.257Z,1011.29
2019-03-18T08:09:48.755Z,1011.34
2019-03-18T08:10:48.753Z,1011.33
2019-03-18T08:11:48.214Z,1011.32
2019-03-18T08:12:48.263Z,1011.35
2019-03-18T08:13:48.217Z,1011.40
2019-03-18T08:14:48.182Z,1011.46
2019-03-18T08:15:48.172Z,1011.40
2019-03-18T08:16:48.758Z,1011.47
2019-03-18T08:17:48.164Z,1011.48
2019-03-18T08:18:48.280Z,1011.46
2019-03-18T08:19:48.785Z,1011.59
2019-03-18T08:20:48.164Z,1011.57
2019-03-18T08:21:48.156Z,1011.53
2019-03-18T08:22:48.099Z,1011.51
2019-03-18T08:23:48.284Z,1011.57
2019-03-18T08:24:48.075Z,1011.53
2019-03-18T08:25:48.082Z,1011.57
2019-03-18T08:26:48.054Z,1011.56
2019-03-18T08:27:48.833Z,1011.54
2019-03-18T08:28:48.080Z,1011.60
2019-03-18T08:29:48.021Z,1011.62
2019-03-18T08:30:48.758Z,1011.65
2019-03-18T08:31:47.998Z,1011.64
2019-03-18T08:32:47.988Z,1011.68
2019-03-18T08:33:48.280Z,1011.68
2019-03-18T08:34:47.968Z,1011.68
2019-03-18T08:35:47.960Z,1011.71
2019-03-18T08:36:47.945Z,1011.65
2019-03-18T08:37:47.935Z,1011.69
2019-03-18T08:38:48.279Z,1011.79
2019-03-18T08:39:47.917Z,1011.78
2019-03-18T08:40:47.909Z,1011.76
2019-03-18T08:41:47.895Z,1011.81
2019-03-18T08:42:47.885Z,1011.78
2019-03-18T08:43:47.917Z,1011.79
2019-03-18T08:44:47.860Z,1011.76
2019-03-18T08:45:47.854Z,1011.78
2019-03-18T08:46:47.849Z,1011.81
2019-03-18T08:47:47.826Z,1011.82
2019-03-18T08:48:55.758Z,1011.85
2019-03-18T08:49:47.804Z,1011.79
2019-03-18T08:50:47.796Z,1011.78
2019-03-18T08:51:48.895Z,1011.83
2019-03-18T08:52:48.757Z,1011.91
2019-03-18T08:53:47.779Z,1011.78
2019-03-18T08:54:48.260Z,1011.82
2019-03-18T08:55:47.748Z,1011.91
2019-03-18T08:56:47.742Z,1011.88
2019-03-18T08:57:47.715Z,1011.90
2019-03-18T08:58:47.710Z,1011.89
2019-03-18T08:59:47.733Z,1011.97
2019-03-18T09:00:47.690Z,1011.97
2019-03-18T09:01:47.681Z,1011.99
2019-03-18T09:02:47.666Z,1012.00
2019-03-18T09:03:47.757Z,1011.88
2019-03-18T09:04:47.658Z,1012.00
2019-03-18T09:05:47.646Z,1012.02
2019-03-18T09:06:48.266Z,1011.98
2019-03-18T09:07:47.607Z,1012.01
2019-03-18T09:08:48.257Z,1012.07
2019-03-18T09:09:47.793Z,1012.05
2019-03-18T09:10:48.333Z,1012.12
2019-03-18T09:11:47.566Z,1012.13
2019-03-18T09:12:47.563Z,1012.09
2019-03-18T09:13:47.553Z,1012.09
2019-03-18T09:14:47.799Z,1012.10
2019-03-18T09:15:47.522Z,1012.12
2019-03-18T09:16:47.550Z,1012.17
2019-03-18T09:17:47.504Z,1012.15
2019-03-18T09:18:47.504Z,1012.17
2019-03-18T09:19:47.490Z,1012.15
2019-03-18T09:20:47.468Z,1012.12
2019-03-18T09:21:47.462Z,1012.15
2019-03-18T09:22:47.484Z,1012.21
2019-03-18T09:23:47.449Z,1012.15
2019-03-18T09:24:47.436Z,1012.15
2019-03-18T09:25:47.434Z,1012.20
2019-03-18T09:26:47.406Z,1012.15
2019-03-18T09:27:47.446Z,1012.22
2019-03-18T09:28:48.283Z,1012.16
2019-03-18T09:29:47.383Z,1012.22
2019-03-18T09:30:47.389Z,1012.17
2019-03-18T09:31:48.264Z,1012.11
2019-03-18T09:32:48.433Z,1012.23
2019-03-18T09:33:47.335Z,1012.21
2019-03-18T09:34:47.780Z,1012.23
2019-03-18T09:35:47.319Z,1012.21
2019-03-18T09:36:48.262Z,1012.16
2019-03-18T09:37:47.290Z,1012.26
2019-03-18T09:38:47.281Z,1012.26
2019-03-18T09:39:47.279Z,1012.15
2019-03-18T09:40:47.264Z,1012.24
2019-03-18T09:41:47.788Z,1012.17
2019-03-18T09:42:47.791Z,1012.22
2019-03-18T09:43:47.315Z,1012.24
2019-03-18T09:44:47.223Z,1012.27
2019-03-18T09:45:47.202Z,1012.26
2019-03-18T09:46:47.842Z,1012.27
2019-03-18T09:47:47.244Z,1012.29
2019-03-18T09:48:47.957Z,1012.28
2019-03-18T09:49:47.185Z,1012.32
2019-03-18T09:50:48.022Z,1012.25
2019-03-18T09:51:47.760Z,1012.19
2019-03-18T09:52:47.216Z,1012.33
2019-03-18T09:53:47.761Z,1012.36
2019-03-18T09:54:47.303Z,1012.32
2019-03-18T09:55:47.097Z,1012.31
2019-03-18T09:56:47.794Z,1012.38
2019-03-18T09:57:47.767Z,1012.41
2019-03-18T09:58:47.082Z,1012.39
2019-03-18T09:59:47.320Z,1012.42
2019-03-18T10:00:47.120Z,1012.39
2019-03-18T10:01:47.039Z,1012.47
2019-03-18T10:02:47.061Z,1012.41
2019-03-18T10:03:47.010Z,1012.38
2019-03-18T10:04:47.300Z,1012.47
2019-03-18T10:05:46.996Z,1012.52
2019-03-18T10:06:48.424Z,1012.48
2019-03-18T10:07:46.964Z,1012.52
2019-03-18T10:08:46.951Z,1012.50
2019-03-18T10:09:46.973Z,1012.40
2019-03-18T10:10:47.765Z,1012.43
2019-03-18T10:11:46.932Z,1012.47
2019-03-18T10:12:46.911Z,1012.37
2019-03-18T10:13:46.903Z,1012.42
2019-03-18T10:14:47.781Z,1012.49
2019-03-18T10:15:46.895Z,1012.53
2019-03-18T10:16:46.878Z,1012.53
2019-03-18T10:17:46.856Z,1012.60
2019-03-18T10:18:47.781Z,1012.52
2019-03-18T10:19:46.834Z,1012.56
2019-03-18T10:20:46.830Z,1012.59
2019-03-18T10:21:46.834Z,1012.62
2019-03-18T10:22:46.834Z,1012.66
2019-03-18T10:23:46.792Z,1012.62
2019-03-18T10:24:46.799Z,1012.57
2019-03-18T10:25:46.798Z,1012.63
2019-03-18T10:26:46.778Z,1012.75
2019-03-18T10:27:46.755Z,1012.68
2019-03-18T10:28:46.753Z,1012.80
2019-03-18T10:29:46.740Z,1012.75
2019-03-18T10:30:46.735Z,1012.79
2019-03-18T10:31:46.708Z,1012.81
2019-03-18T10:32:46.723Z,1012.87
2019-03-18T10:33:46.707Z,1012.88
2019-03-18T10:34:46.673Z,1012.88
2019-03-18T10:35:46.694Z,1012.79
2019-03-18T10:36:46.648Z,1012.86
2019-03-18T10:37:46.641Z,1012.86
2019-03-18T10:38:46.631Z,1012.95
2019-03-18T10:39:46.717Z,1012.93
2019-03-18T10:40:46.780Z,1012.88
2019-03-18T10:41:46.605Z,1013.02
2019-03-18T10:42:46.599Z,1012.98
2019-03-18T10:43:46.579Z,1012.98
2019-03-18T10:44:46.582Z,1012.95
2019-03-18T10:45:46.571Z,1013.00
2019-03-18T10:46:46.546Z,1013.03
2019-03-18T10:47:46.531Z,1013.07
2019-03-18T10:48:46.520Z,1013.08
2019-03-18T10:49:46.765Z,1013.00
2019-03-18T10:50:46.797Z,1013.09
2019-03-18T10:51:48.313Z,1012.95
2019-03-18T10:52:46.570Z,1012.98
2019-03-18T10:53:46.481Z,1013.02
2019-03-18T10:54:46.458Z,1012.98
2019-03-18T10:55:46.453Z,1012.98
2019-03-18T10:56:46.434Z,1012.98
2019-03-18T10:57:46.433Z,1012.96
2019-03-18T10:58:46.424Z,1012.97
2019-03-18T10:59:46.410Z,1013.02
2019-03-18T11:00:46.404Z,1013.07
2019-03-18T11:01:46.380Z,1013.06
2019-03-18T11:02:46.372Z,1013.03
2019-03-18T11:03:46.381Z,1013.07
2019-03-18T11:04:46.370Z,1013.07
2019-03-18T11:05:46.399Z,1013.01
2019-03-18T11:06:46.325Z,1013.06
2019-03-18T11:07:47.327Z,1013.04
2019-03-18T11:08:46.314Z,1013.02
2019-03-18T11:09:46.294Z,1013.01
2019-03-18T11:10:46.289Z,1013.00
2019-03-18T11:11:46.340Z,1013.02
2019-03-18T11:12:46.253Z,1013.03
2019-03-18T11:13:46.246Z,1013.01
2019-03-18T11:14:46.243Z,1013.00
2019-03-18T11:15:46.229Z,1013.05
2019-03-18T11:16:46.449Z,1013.03
2019-03-18T11:17:46.773Z,1013.01
2019-03-18T11:18:46.191Z,1013.06
2019-03-18T11:19:57.488Z,1013.02
2019-03-18T11:20:46.182Z,1013.07
2019-03-18T11:21:46.170Z,1013.08
2019-03-18T11:22:46.181Z,1013.10
2019-03-18T11:23:46.800Z,1013.13
2019-03-18T11:24:46.768Z,1013.11
2019-03-18T11:25:46.125Z,1013.07
2019-03-18T11:26:46.333Z,1013.16
2019-03-18T11:27:46.108Z,1013.18
2019-03-18T11:28:46.078Z,1013.11
2019-03-18T11:29:46.771Z,1013.21
2019-03-18T11:30:46.057Z,1013.18
2019-03-18T11:31:46.067Z,1013.20
2019-03-18T11:32:46.769Z,1013.20
2019-03-18T11:33:46.040Z,1013.21
2019-03-18T11:34:46.029Z,1013.28
2019-03-18T11:35:46.002Z,1013.15
2019-03-18T11:36:45.999Z,1013.16
2019-03-18T11:37:46.004Z,1013.16
2019-03-18T11:38:45.979Z,1013.19
2019-03-18T11:39:45.968Z,1013.18
2019-03-18T11:40:45.987Z,1013.19
2019-03-18T11:41:45.962Z,1013.20
2019-03-18T11:42:45.928Z,1013.21
2019-03-18T11:43:45.914Z,1013.13
2019-03-18T11:44:45.919Z,1013.16
2019-03-18T11:45:45.890Z,1013.11
2019-03-18T11:46:45.970Z,1013.16
2019-03-18T11:47:45.882Z,1013.16
2019-03-18T11:48:45.873Z,1013.15
2019-03-18T11:49:45.866Z,1013.14
2019-03-18T11:50:45.845Z,1013.14
2019-03-18T11:51:46.779Z,1013.18
2019-03-18T11:52:45.820Z,1013.12
2019-03-18T11:53:45.802Z,1013.16
2019-03-18T11:54:46.793Z,1013.16
2019-03-18T11:55:45.782Z,1013.15
2019-03-18T11:56:45.777Z,1013.22
2019-03-18T11:57:45.777Z,1013.11
2019-03-18T11:58:46.269Z,1013.17
2019-03-18T11:59:46.981Z,1013.15
2019-03-18T12:00:45.733Z,1013.18
2019-03-18T12:01:45.719Z,1013.08
2019-03-18T12:02:45.782Z,1013.08
2019-03-18T12:03:45.689Z,1013.10
2019-03-18T12:04:46.281Z,1013.18
2019-03-18T12:05:45.672Z,1013.20